createdAt,value
2019-05-18T00:03:31.692Z,6.41
2019-05-18T00:07:33.843Z,6.33
2019-05-18T00:11:35.997Z,6.28
2019-05-18T00:15:38.137Z,6.21
2019-05-18T00:19:41.253Z,6.14
2019-05-18T00:23:43.622Z,6.11
2019-05-18T00:27:45.741Z,6.03
2019-05-18T00:31:47.901Z,6.00
2019-05-18T00:35:50.936Z,5.94
2019-05-18T00:39:53.038Z,5.91
2019-05-18T00:43:55.062Z,5.87
2019-05-18T00:47:57.201Z,5.88
2019-05-18T00:51:59.291Z,5.88
2019-05-18T00:56:01.351Z,5.80
2019-05-18T01:00:03.461Z,5.74
2019-05-18T01:04:05.729Z,5.67
2019-05-18T01:08:07.911Z,5.62
2019-05-18T01:12:10.084Z,5.62
2019-05-18T01:16:12.178Z,5.56
2019-05-18T01:20:14.528Z,5.44
2019-05-18T01:24:16.827Z,5.43
2019-05-18T01:28:18.890Z,5.40
2019-05-18T01:32:21.032Z,5.40
2019-05-18T01:36:23.248Z,5.39
2019-05-18T01:40:25.463Z,5.38
2019-05-18T01:44:27.675Z,5.34
2019-05-18T01:48:29.816Z,5.37
2019-05-18T01:52:32.052Z,5.36
2019-05-18T01:56:34.279Z,5.32
2019-05-18T02:00:36.423Z,5.27
2019-05-18T02:04:38.541Z,5.26
2019-05-18T02:08:40.661Z,5.31
2019-05-18T02:12:42.802Z,5.32
2019-05-18T02:16:45.153Z,5.25
2019-05-18T02:20:47.137Z,5.24
2019-05-18T02:24:49.573Z,5.28
2019-05-18T02:28:52.021Z,5.29
2019-05-18T02:32:54.241Z,5.30
2019-05-18T02:36:56.617Z,5.42
2019-05-18T02:40:58.816Z,5.57
2019-05-18T02:45:01.590Z,5.76
2019-05-18T02:49:04.029Z,6.07
2019-05-18T02:53:07.371Z,6.50
2019-05-18T02:57:09.607Z,6.70
2019-05-18T03:01:11.699Z,6.96
2019-05-18T03:05:14.516Z,7.25
2019-05-18T03:09:17.699Z,7.54
2019-05-18T03:13:19.741Z,7.51
2019-05-18T03:17:21.849Z,7.57
2019-05-18T03:21:23.896Z,7.66
2019-05-18T03:25:26.353Z,7.65
2019-05-18T03:29:28.450Z,7.76
2019-05-18T03:33:30.883Z,7.88
2019-05-18T03:37:33.118Z,8.12
2019-05-18T03:41:35.561Z,8.38
2019-05-18T03:45:37.730Z,8.65
2019-05-18T03:49:40.619Z,9.01
2019-05-18T03:53:42.863Z,9.29
2019-05-18T03:57:44.975Z,9.60
2019-05-18T04:01:47.135Z,9.92
2019-05-18T04:05:49.143Z,10.32
2019-05-18T04:09:51.183Z,10.61
2019-05-18T04:13:53.215Z,10.92
2019-05-18T04:17:55.482Z,11.20
2019-05-18T04:21:58.570Z,11.42
2019-05-18T04:26:01.233Z,11.83
2019-05-18T04:30:03.381Z,12.20
2019-05-18T04:34:05.588Z,12.68
2019-05-18T04:38:08.198Z,13.05
2019-05-18T04:42:10.177Z,13.36
2019-05-18T04:46:12.392Z,13.79
2019-05-18T04:50:15.183Z,14.10
2019-05-18T04:54:17.309Z,14.35
2019-05-18T04:58:19.304Z,14.62
2019-05-18T05:02:21.574Z,14.83
2019-05-18T05:06:23.719Z,15.09
2019-05-18T05:10:25.864Z,15.39
2019-05-18T05:14:27.884Z,15.72
2019-05-18T05:18:30.145Z,16.03
2019-05-18T05:22:32.752Z,16.27
2019-05-18T05:26:34.997Z,16.43
2019-05-18T05:30:38.845Z,16.79
2019-05-18T05:34:40.864Z,16.95
2019-05-18T05:38:43.479Z,17.29
2019-05-18T05:42:45.263Z,17.43
2019-05-18T05:46:47.002Z,17.65
2019-05-18T05:50:48.791Z,17.88
2019-05-18T05:54:50.614Z,18.11
2019-05-18T05:58:52.501Z,18.40
2019-05-18T06:02:54.533Z,18.55
2019-05-18T06:06:59.522Z,18.79
2019-05-18T06:11:01.552Z,19.02
2019-05-18T06:15:03.738Z,19.33
2019-05-18T06:19:05.780Z,19.41
2019-05-18T06:23:07.974Z,19.49
2019-05-18T06:27:09.986Z,19.77
2019-05-18T06:31:12.003Z,19.96
2019-05-18T06:35:14.561Z,19.63
2019-05-18T06:39:16.633Z,19.70
2019-05-18T06:43:18.695Z,19.76
2019-05-18T06:47:20.811Z,19.72
2019-05-18T06:51:22.834Z,19.83
2019-05-18T06:55:25.812Z,20.37
2019-05-18T06:59:29.114Z,20.76
2019-05-18T07:03:31.407Z,20.97
2019-05-18T07:07:33.504Z,20.94
2019-05-18T07:11:35.717Z,21.34
2019-05-18T07:15:37.840Z,21.29
2019-05-18T07:19:39.983Z,21.17
2019-05-18T07:23:43.865Z,21.40
2019-05-18T07:27:46.990Z,21.21
2019-05-18T07:31:49.120Z,21.49
2019-05-18T07:35:51.361Z,21.62
2019-05-18T07:39:53.505Z,21.68
2019-05-18T07:43:55.582Z,21.76
2019-05-18T07:47:57.652Z,21.96
2019-05-18T07:51:59.654Z,22.09
2019-05-18T07:56:01.818Z,21.83
2019-05-18T08:00:04.427Z,21.97
2019-05-18T08:04:07.518Z,22.26
2019-05-18T08:08:09.710Z,22.28
2019-05-18T08:12:11.737Z,22.24
2019-05-18T08:16:15.536Z,21.85
2019-05-18T08:20:17.736Z,22.03
2019-05-18T08:24:19.946Z,22.03
2019-05-18T08:28:22.114Z,22.10
2019-05-18T08:32:24.199Z,22.42
2019-05-18T08:36:26.966Z,22.61
2019-05-18T08:40:29.284Z,22.57
2019-05-18T08:44:32.858Z,22.55
2019-05-18T08:48:35.278Z,22.65
2019-05-18T08:52:37.638Z,22.96
2019-05-18T08:56:39.771Z,23.18
2019-05-18T09:00:41.885Z,23.39
2019-05-18T09:04:45.250Z,23.27
2019-05-18T09:08:47.270Z,23.03
2019-05-18T09:12:49.362Z,22.95
2019-05-18T09:16:51.443Z,22.74
2019-05-18T09:20:53.683Z,23.22
2019-05-18T09:24:55.773Z,22.95
2019-05-18T09:28:57.901Z,23.40
2019-05-18T09:33:00.154Z,23.40
2019-05-18T09:37:02.310Z,23.26
2019-05-18T09:41:04.601Z,23.35
2019-05-18T09:45:07.998Z,23.39
2019-05-18T09:49:10.198Z,23.48
2019-05-18T09:53:12.478Z,23.51
2019-05-18T09:57:14.841Z,23.65
2019-05-18T10:01:17.006Z,23.82
2019-05-18T10:05:19.218Z,24.03
2019-05-18T10:09:21.360Z,23.89
2019-05-18T10:13:23.475Z,23.94
2019-05-18T10:17:25.595Z,23.94
2019-05-18T10:21:28.773Z,23.97
2019-05-18T10:25:31.039Z,23.90
2019-05-18T10:29:33.122Z,23.90
2019-05-18T10:33:35.229Z,23.72
2019-05-18T10:37:37.343Z,23.62
2019-05-18T10:41:40.696Z,24.05
2019-05-18T10:45:45.083Z,23.81
2019-05-18T10:49:46.703Z,23.81
2019-05-18T10:53:48.909Z,23.39
2019-05-18T10:57:51.265Z,24.18
2019-05-18T11:01:53.459Z,24.18
2019-05-18T11:05:57.464Z,23.85
2019-05-18T11:09:59.716Z,24.12
2019-05-18T11:14:02.588Z,24.12
2019-05-18T11:18:05.518Z,23.79
2019-05-18T11:22:07.484Z,24.29
2019-05-18T11:26:09.690Z,24.00
2019-05-18T11:30:12.304Z,24.19
2019-05-18T11:34:14.101Z,24.13
2019-05-18T11:38:18.714Z,24.13
2019-05-18T11:42:26.660Z,24.07
2019-05-18T11:46:29.008Z,24.22
2019-05-18T11:50:33.102Z,24.31
2019-05-18T11:54:36.646Z,23.98
2019-05-18T11:58:41.753Z,23.98
2019-05-18T12:02:44.998Z,23.65
2019-05-18T12:06:49.065Z,23.63
2019-05-18T12:10:52.286Z,23.76
2019-05-18T12:14:54.317Z,23.67
2019-05-18T12:18:57.639Z,23.79
2019-05-18T12:23:02.296Z,24.01
2019-05-18T12:27:04.601Z,24.28
2019-05-18T12:31:06.733Z,24.67
2019-05-18T12:35:09.061Z,24.12
2019-05-18T12:39:11.215Z,24.30
2019-05-18T12:43:13.353Z,24.07
2019-05-18T12:47:16.624Z,24.07
2019-05-18T12:51:18.731Z,24.00
2019-05-18T12:55:21.446Z,24.26
2019-05-18T12:59:23.573Z,24.27
2019-05-18T13:03:25.692Z,24.44
2019-05-18T13:07:27.824Z,24.55
2019-05-18T13:11:29.743Z,24.55
2019-05-18T13:15:31.574Z,24.46
2019-05-18T13:19:33.421Z,24.51
2019-05-18T13:23:35.258Z,24.43
2019-05-18T13:27:39.833Z,24.25
2019-05-18T13:31:40.946Z,24.03
2019-05-18T13:35:45.522Z,24.31
2019-05-18T13:39:47.044Z,24.19
2019-05-18T13:43:50.766Z,24.31
2019-05-18T13:47:52.829Z,24.44
2019-05-18T13:51:54.929Z,24.44
2019-05-18T13:55:57.074Z,24.30
2019-05-18T14:00:00.026Z,24.45
2019-05-18T14:04:02.259Z,24.45
2019-05-18T14:08:04.463Z,24.53
2019-05-18T14:12:06.567Z,24.37
2019-05-18T14:16:09.866Z,24.47
2019-05-18T14:20:13.664Z,24.64
2019-05-18T14:24:15.739Z,24.66
2019-05-18T14:28:17.849Z,24.56
2019-05-18T14:32:20.099Z,25.03
2019-05-18T14:36:22.133Z,25.12
2019-05-18T14:40:24.267Z,26.63
2019-05-18T14:44:26.297Z,27.81
2019-05-18T14:48:28.618Z,28.52
2019-05-18T14:52:30.825Z,29.36
2019-05-18T14:56:35.330Z,28.99
2019-05-18T15:00:37.259Z,29.20
2019-05-18T15:04:39.129Z,29.15
2019-05-18T15:08:41.962Z,29.22
2019-05-18T15:12:44.222Z,28.77
2019-05-18T15:16:46.473Z,28.69
2019-05-18T15:20:48.594Z,28.78
2019-05-18T15:24:50.764Z,28.85
2019-05-18T15:28:52.788Z,27.91
2019-05-18T15:32:55.010Z,27.85
2019-05-18T15:36:58.219Z,28.46
2019-05-18T15:41:00.458Z,29.23
2019-05-18T15:45:02.729Z,28.23
2019-05-18T15:49:06.128Z,26.50
2019-05-18T15:53:08.249Z,25.39
2019-05-18T15:57:10.393Z,24.38
2019-05-18T16:01:12.757Z,23.34
2019-05-18T16:05:16.378Z,22.67
2019-05-18T16:09:18.543Z,22.36
2019-05-18T16:13:20.792Z,22.05
2019-05-18T16:17:36.980Z,21.93
2019-05-18T16:21:27.053Z,21.93
2019-05-18T16:25:29.413Z,22.04
2019-05-18T16:29:31.619Z,21.98
2019-05-18T16:33:33.827Z,21.87
2019-05-18T16:37:35.996Z,21.80
2019-05-18T16:41:38.028Z,21.71
2019-05-18T16:45:40.123Z,21.53
2019-05-18T16:49:42.478Z,21.31
2019-05-18T16:53:49.463Z,21.28
2019-05-18T16:57:49.504Z,21.06
2019-05-18T17:01:51.518Z,20.86
2019-05-18T17:05:53.746Z,20.75
2019-05-18T17:09:55.875Z,20.69
2019-05-18T17:13:57.978Z,20.72
2019-05-18T17:18:00.247Z,20.42
2019-05-18T17:22:02.386Z,20.30
2019-05-18T17:26:04.555Z,20.16
2019-05-18T17:30:07.518Z,19.92
2019-05-18T17:34:09.724Z,19.62
2019-05-18T17:38:11.817Z,19.41
2019-05-18T17:42:14.021Z,19.34
2019-05-18T17:46:16.193Z,19.16
2019-05-18T17:50:19.828Z,18.91
2019-05-18T17:54:21.940Z,18.82
2019-05-18T17:58:24.101Z,18.50
2019-05-18T18:02:26.209Z,18.35
2019-05-18T18:06:28.459Z,17.58
2019-05-18T18:10:30.566Z,17.01
2019-05-18T18:14:32.709Z,16.59
2019-05-18T18:18:35.106Z,16.31
2019-05-18T18:22:37.449Z,16.05
2019-05-18T18:26:39.592Z,15.77
2019-05-18T18:30:41.788Z,15.53
2019-05-18T18:34:47.755Z,15.36
2019-05-18T18:38:51.561Z,15.11
2019-05-18T18:42:55.041Z,14.93
2019-05-18T18:46:58.344Z,14.78
2019-05-18T18:51:03.986Z,14.60
2019-05-18T18:55:06.886Z,14.41
2019-05-18T18:59:20.656Z,14.24
2019-05-18T19:03:22.901Z,14.07
2019-05-18T19:07:24.952Z,13.95
2019-05-18T19:11:29.687Z,13.74
2019-05-18T19:15:31.258Z,13.54
2019-05-18T19:19:34.322Z,13.34
2019-05-18T19:23:36.315Z,13.24
2019-05-18T19:27:54.095Z,13.17
2019-05-18T19:31:44.981Z,13.06
2019-05-18T19:35:47.197Z,12.90
2019-05-18T19:39:49.707Z,12.80
2019-05-18T19:43:52.500Z,12.67
2019-05-18T19:47:54.621Z,12.65
2019-05-18T19:51:57.062Z,12.61
2019-05-18T19:55:59.160Z,12.59
2019-05-18T20:00:01.341Z,12.43
2019-05-18T20:04:03.839Z,12.27
2019-05-18T20:08:06.126Z,12.14
2019-05-18T20:12:08.202Z,11.98
2019-05-18T20:16:10.206Z,12.01
2019-05-18T20:20:12.547Z,11.97
2019-05-18T20:24:14.671Z,11.94
2019-05-18T20:28:23.871Z,11.78
2019-05-18T20:32:20.594Z,11.57
2019-05-18T20:36:22.689Z,11.51
2019-05-18T20:40:24.874Z,11.32
2019-05-18T20:44:26.970Z,11.33
2019-05-18T20:48:29.025Z,11.25
2019-05-18T20:52:31.236Z,11.15
2019-05-18T20:56:33.437Z,10.99
2019-05-18T21:00:38.328Z,10.95
2019-05-18T21:04:39.440Z,10.84
2019-05-18T21:08:41.556Z,10.74
2019-05-18T21:12:43.701Z,10.56
2019-05-18T21:16:45.930Z,10.41
2019-05-18T21:20:48.427Z,10.31
2019-05-18T21:24:50.485Z,10.13
2019-05-18T21:28:57.598Z,10.03
2019-05-18T21:32:56.607Z,10.00
2019-05-18T21:36:58.822Z,9.89
2019-05-18T21:41:00.857Z,9.90
2019-05-18T21:45:02.986Z,9.88
2019-05-18T21:49:05.297Z,9.97
2019-05-18T21:53:08.792Z,9.98
2019-05-18T21:57:10.896Z,9.93
2019-05-18T22:01:13.163Z,9.77
2019-05-18T22:05:15.331Z,9.71
2019-05-18T22:09:17.457Z,9.65
2019-05-18T22:13:19.712Z,9.68
2019-05-18T22:17:21.862Z,9.73
2019-05-18T22:21:23.876Z,9.58
2019-05-18T22:25:26.002Z,9.35
2019-05-18T22:29:28.004Z,9.13
2019-05-18T22:33:30.127Z,9.08
2019-05-18T22:37:32.449Z,9.06
2019-05-18T22:41:34.600Z,9.10
2019-05-18T22:45:36.826Z,9.15
2019-05-18T22:49:38.853Z,9.10
2019-05-18T22:53:41.478Z,9.08
2019-05-18T22:57:43.658Z,9.15
2019-05-18T23:01:45.657Z,9.15
2019-05-18T23:05:47.795Z,9.08
2019-05-18T23:09:50.012Z,9.01
2019-05-18T23:13:52.115Z,9.01
2019-05-18T23:17:54.176Z,8.94
2019-05-18T23:21:56.268Z,8.81
2019-05-18T23:25:58.364Z,8.70
2019-05-18T23:30:00.434Z,8.57
2019-05-18T23:34:03.823Z,8.42
2019-05-18T23:38:05.965Z,8.33
2019-05-18T23:42:07.957Z,8.28
2019-05-18T23:46:10.081Z,8.31
2019-05-18T23:50:12.502Z,8.26
2019-05-18T23:54:16.244Z,8.29
2019-05-18T23:58:18.123Z,8.26
